»·PEaware :: TPX775 KLAS-KSAN

TPX775 :: KLAS-KSAN

FLIGHT INFORMATION

Flight Status: Arrived
Operator: ATP Experience
More flights by this operator :: More flights under this callsign
Pilot: Matthew M. (8235)
Aircraft: BOEING 737-600
(B736)
More flights by this aircraft type
Origin: KLAS McCarran Intl
United States
Destination: KSAN San Diego Intl-Lindbergh
United States
More flights between these airports :: More routes between these airports
Route: BOACH8 LVELL LUCKI1
File this flight plan on PilotEdge
Remarks:
Altitude:
(Current/Filed)
28,000ft
Speed:
(Current/Filed)
440kts
Departed: 25-May-20 03:22 PM
Arrived: 25-May-20 04:08 PM
Distance/Time
Traveled:
225nm/0:45
Distance/Time
To Go:
Arrived

Flight Plot

Page will automatically refresh every two minutes.

Flight plan parsing failed; only flown route is shown


Map Options




Map Legend


Flown Route
Filed Route
Departure Airport
Arrival Airport
Navaid (VOR, NDB)
Fix

Horizontal Profiles

Position Reports

Time Latitude Longitude Heading Altitude Ground
Speed
25-May-20 15:03 36.080703 -115.138790 315 2068ft 0kts
25-May-20 15:05 36.080703 -115.138790 315 2068ft 0kts
25-May-20 15:06 36.080703 -115.138790 315 2068ft 0kts
25-May-20 15:07 36.080703 -115.138790 315 2068ft 0kts
25-May-20 15:08 36.080703 -115.138790 315 2068ft 0kts
25-May-20 15:09 36.080703 -115.138790 315 2068ft 0kts
25-May-20 15:10 36.080703 -115.138790 315 2068ft 0kts
25-May-20 15:11 36.080703 -115.138790 315 2068ft 0kts
25-May-20 15:12 36.080703 -115.138790 315 2068ft 0kts
25-May-20 15:13 36.080703 -115.138790 315 2068ft 0kts
25-May-20 15:14 36.080703 -115.138790 315 2068ft 0kts
25-May-20 15:15 36.080703 -115.138790 315 2068ft 0kts
25-May-20 15:16 36.080650 -115.138690 288 2068ft 2kts
25-May-20 15:17 36.080241 -115.138168 338 2067ft 2kts
25-May-20 15:18 36.079869 -115.138292 45 2068ft 0kts
25-May-20 15:19 36.079870 -115.138292 45 2068ft 0kts
25-May-20 15:19 36.078975 -115.135918 132 2065ft 21kts
25-May-20 15:21 36.078157 -115.122535 120 2035ft 25kts
25-May-20 15:22 36.076447 -115.132965 268 2060ft 121kts
25-May-20 15:22 36.076848 -115.177909 273 3335ft 170kts
25-May-20 15:24 36.054875 -115.256395 224 4861ft 270kts
25-May-20 15:25 35.983969 -115.296117 200 7864ft 291kts
25-May-20 15:25 35.917220 -115.308399 184 10336ft 302kts
25-May-20 15:26 35.832938 -115.313205 174 12376ft 337kts
25-May-20 15:27 35.735090 -115.301165 175 14999ft 353kts
25-May-20 15:28 35.639027 -115.295261 184 17284ft 367kts
25-May-20 15:29 35.535139 -115.300375 183 19481ft 381kts
25-May-20 15:30 35.430260 -115.304494 183 21453ft 394kts
25-May-20 15:31 35.324605 -115.308673 183 23201ft 406kts
25-May-20 15:32 35.211321 -115.313136 183 24822ft 420kts
25-May-20 15:33 35.095442 -115.317688 183 26311ft 433kts
25-May-20 15:34 35.000381 -115.321412 183 27456ft 441kts
25-May-20 15:35 34.897367 -115.325445 183 27920ft 453kts
25-May-20 15:36 34.811245 -115.328804 183 27915ft 463kts
25-May-20 15:37 34.694291 -115.368569 202 27931ft 457kts
25-May-20 15:38 34.587778 -115.415559 202 28011ft 457kts
25-May-20 15:39 34.475237 -115.464667 202 28062ft 458kts
25-May-20 15:40 34.363625 -115.513246 202 28063ft 457kts
25-May-20 15:41 34.270473 -115.569436 215 28063ft 453kts
25-May-20 15:42 34.169350 -115.635273 203 28065ft 457kts
25-May-20 15:43 34.043297 -115.693780 203 28037ft 458kts
25-May-20 15:44 33.955850 -115.734981 203 27919ft 457kts
25-May-20 15:45 33.848088 -115.787038 204 27843ft 457kts
25-May-20 15:46 33.743170 -115.838160 203 27844ft 453kts
25-May-20 15:47 33.645628 -115.883657 203 27844ft 453kts
25-May-20 15:48 33.542563 -115.933383 211 26425ft 448kts
25-May-20 15:49 33.466682 -116.027607 237 25845ft 430kts
25-May-20 15:50 33.404706 -116.134776 237 24097ft 421kts
25-May-20 15:51 33.346320 -116.232574 229 21573ft 423kts
25-May-20 15:52 33.253069 -116.300072 207 19081ft 421kts
25-May-20 15:53 33.158472 -116.354968 208 16680ft 412kts
25-May-20 15:54 33.049439 -116.418666 207 13887ft 400kts
25-May-20 15:55 32.959204 -116.490269 223 12154ft 366kts
25-May-20 15:56 32.878681 -116.572262 221 10369ft 320kts
25-May-20 15:57 32.811940 -116.639440 222 9100ft 294kts
25-May-20 15:58 32.759619 -116.705646 243 7679ft 286kts
25-May-20 15:59 32.723236 -116.784961 242 6307ft 281kts
25-May-20 16:00 32.693578 -116.861175 252 5308ft 263kts
25-May-20 16:01 32.674206 -116.931924 267 4265ft 231kts
25-May-20 16:02 32.685706 -116.998386 292 3351ft 189kts
25-May-20 16:03 32.699200 -117.048222 287 2573ft 156kts
25-May-20 16:04 32.710621 -117.095135 287 1645ft 144kts
25-May-20 16:05 32.720101 -117.134253 287 1082ft 142kts
25-May-20 16:06 32.730701 -117.177956 287 86ft 134kts
25-May-20 16:07 32.734108 -117.194896 198 23ft 0kts
25-May-20 16:08 32.732791 -117.195041 288 23ft 5kts
25-May-20 16:09 32.732835 -117.195426 275 23ft 0kts
25-May-20 16:10 32.732835 -117.195426 275 23ft 0kts

Navigation Log

Ident Type
Flight plan parsing failed, navigation log unavailable